createdAt,value
2023-03-17T00:00:44.428Z,7.88
2023-03-17T00:03:18.846Z,7.90
2023-03-17T00:05:45.506Z,7.91
2023-03-17T00:08:18.585Z,7.90
2023-03-17T00:10:45.095Z,7.91
2023-03-17T00:13:12.509Z,7.90
2023-03-17T00:15:39.240Z,7.93
2023-03-17T00:18:13.790Z,7.94
2023-03-17T00:20:40.437Z,7.96
2023-03-17T00:23:14.526Z,7.98
2023-03-17T00:25:41.009Z,7.98
2023-03-17T00:28:16.013Z,7.99
2023-03-17T00:30:42.495Z,8.00
2023-03-17T00:33:11.655Z,8.01
2023-03-17T00:35:38.932Z,8.00
2023-03-17T00:38:06.989Z,7.99
2023-03-17T00:40:33.647Z,7.97
2023-03-17T00:43:00.159Z,7.98
2023-03-17T00:45:27.009Z,7.97
2023-03-17T00:47:55.041Z,7.94
2023-03-17T00:50:25.539Z,7.93
2023-03-17T00:52:54.489Z,7.94
2023-03-17T00:55:21.939Z,7.91
2023-03-17T00:57:49.233Z,7.89
2023-03-17T01:00:21.802Z,7.89
2023-03-17T01:02:48.792Z,7.88
2023-03-17T01:05:15.699Z,7.89
2023-03-17T01:07:45.893Z,7.88
2023-03-17T01:10:16.315Z,7.86
2023-03-17T01:12:43.556Z,7.89
2023-03-17T01:15:10.349Z,7.87
2023-03-17T01:17:36.868Z,7.82
2023-03-17T01:20:03.950Z,7.83
2023-03-17T01:22:30.434Z,7.78
2023-03-17T01:24:58.275Z,7.80
2023-03-17T01:27:24.803Z,7.77
2023-03-17T01:29:52.612Z,7.68
2023-03-17T01:32:19.108Z,7.62
2023-03-17T01:34:45.653Z,7.58
2023-03-17T01:37:12.194Z,7.55
2023-03-17T01:39:38.657Z,7.51
2023-03-17T01:42:07.250Z,7.48
2023-03-17T01:44:33.796Z,7.44
2023-03-17T01:47:00.380Z,7.39
2023-03-17T01:49:30.659Z,7.34
2023-03-17T01:52:02.673Z,7.31
2023-03-17T01:54:35.673Z,7.30
2023-03-17T01:57:07.155Z,7.32
2023-03-17T01:59:39.312Z,7.29
2023-03-17T02:02:09.544Z,7.30
2023-03-17T02:04:38.173Z,7.28
2023-03-17T02:07:05.248Z,7.25
2023-03-17T02:09:33.819Z,7.24
2023-03-17T02:12:02.323Z,7.26
2023-03-17T02:14:29.145Z,7.24
2023-03-17T02:16:57.012Z,7.19
2023-03-17T02:19:23.536Z,7.19
2023-03-17T02:21:53.750Z,7.17
2023-03-17T02:24:27.802Z,7.20
2023-03-17T02:26:57.778Z,7.21
2023-03-17T02:29:24.719Z,7.22
2023-03-17T02:31:51.697Z,7.21
2023-03-17T02:34:18.235Z,7.21
2023-03-17T02:36:44.791Z,7.21
2023-03-17T02:39:12.899Z,7.21
2023-03-17T02:41:39.384Z,7.18
2023-03-17T02:44:06.013Z,7.18
2023-03-17T02:46:32.638Z,7.12
2023-03-17T02:48:59.603Z,7.14
2023-03-17T02:51:26.252Z,7.10
2023-03-17T02:53:52.772Z,7.11
2023-03-17T02:56:20.631Z,7.15
2023-03-17T02:58:47.134Z,7.16
2023-03-17T03:01:13.704Z,7.14
2023-03-17T03:03:40.162Z,7.20
2023-03-17T03:06:07.167Z,7.17
2023-03-17T03:08:33.873Z,7.21
2023-03-17T03:11:00.424Z,7.19
2023-03-17T03:13:28.504Z,7.16
2023-03-17T03:15:55.002Z,7.16
2023-03-17T03:18:21.593Z,7.17
2023-03-17T03:20:48.103Z,7.19
2023-03-17T03:23:15.199Z,7.20
2023-03-17T03:25:42.294Z,7.19
2023-03-17T03:28:09.143Z,7.22
2023-03-17T03:30:37.860Z,7.22
2023-03-17T03:33:04.884Z,7.20
2023-03-17T03:35:32.157Z,7.20
2023-03-17T03:37:59.630Z,7.17
2023-03-17T03:40:26.354Z,7.17
2023-03-17T03:42:52.942Z,7.14
2023-03-17T03:45:19.598Z,7.12
2023-03-17T03:47:47.428Z,7.10
2023-03-17T03:50:14.355Z,7.06
2023-03-17T03:52:40.858Z,7.05
2023-03-17T03:55:08.296Z,7.01
2023-03-17T03:57:35.112Z,6.91
2023-03-17T04:00:02.080Z,6.92
2023-03-17T04:02:28.624Z,6.96
2023-03-17T04:04:56.605Z,6.96
2023-03-17T04:07:23.251Z,6.94
2023-03-17T04:09:49.813Z,6.96
2023-03-17T04:12:17.114Z,6.94
2023-03-17T04:14:43.774Z,6.94
2023-03-17T04:17:10.554Z,6.93
2023-03-17T04:19:37.198Z,6.95
2023-03-17T04:22:05.328Z,6.96
2023-03-17T04:24:31.830Z,6.96
2023-03-17T04:26:58.336Z,6.97
2023-03-17T04:29:24.790Z,6.96
2023-03-17T04:31:51.315Z,6.97
2023-03-17T04:34:19.007Z,6.98
2023-03-17T04:36:46.816Z,6.99
2023-03-17T04:39:14.983Z,6.97
2023-03-17T04:41:41.765Z,6.97
2023-03-17T04:44:08.496Z,6.99
2023-03-17T04:46:35.762Z,6.98
2023-03-17T04:49:02.394Z,6.98
2023-03-17T04:51:28.910Z,6.96
2023-03-17T04:53:55.376Z,6.98
2023-03-17T04:56:23.189Z,6.97
2023-03-17T04:58:49.649Z,6.97
2023-03-17T05:01:16.212Z,6.99
2023-03-17T05:03:42.725Z,6.99
2023-03-17T05:06:09.404Z,6.98
2023-03-17T05:08:35.914Z,6.98
2023-03-17T05:11:02.650Z,6.99
2023-03-17T05:13:30.498Z,6.99
2023-03-17T05:15:57.073Z,7.00
2023-03-17T05:18:25.296Z,6.97
2023-03-17T05:20:51.973Z,6.98
2023-03-17T05:23:18.738Z,6.98
2023-03-17T05:25:45.284Z,7.00
2023-03-17T05:28:11.760Z,7.00
2023-03-17T05:30:39.609Z,7.03
2023-03-17T05:33:06.256Z,7.03
2023-03-17T05:35:32.919Z,7.00
2023-03-17T05:37:59.488Z,6.99
2023-03-17T05:40:25.965Z,6.97
2023-03-17T05:42:52.546Z,6.98
2023-03-17T05:45:19.106Z,6.96
2023-03-17T05:47:46.965Z,6.93
2023-03-17T05:50:13.489Z,6.90
2023-03-17T05:52:40.191Z,6.90
2023-03-17T05:55:07.535Z,6.92
2023-03-17T05:57:34.239Z,6.88
2023-03-17T06:00:00.702Z,6.88
2023-03-17T06:02:27.252Z,6.87
2023-03-17T06:04:55.192Z,6.85
2023-03-17T06:07:21.688Z,6.84
2023-03-17T06:09:48.304Z,6.85
2023-03-17T06:12:14.825Z,6.86
2023-03-17T06:14:41.344Z,6.85
2023-03-17T06:17:08.245Z,6.87
2023-03-17T06:19:34.711Z,6.89
2023-03-17T06:22:02.546Z,6.91
2023-03-17T06:24:29.026Z,6.90
2023-03-17T06:26:55.718Z,6.95
2023-03-17T06:29:22.221Z,6.98
2023-03-17T06:31:48.759Z,7.02
2023-03-17T06:34:15.228Z,7.04
2023-03-17T06:36:41.714Z,7.07
2023-03-17T06:39:09.607Z,7.11
2023-03-17T06:41:36.075Z,7.14
2023-03-17T06:44:02.579Z,7.20
2023-03-17T06:46:29.031Z,7.21
2023-03-17T06:48:55.544Z,7.25
2023-03-17T06:51:22.178Z,7.30
2023-03-17T06:53:48.698Z,7.31
2023-03-17T06:56:29.101Z,7.34
2023-03-17T06:58:56.279Z,7.39
2023-03-17T07:01:22.822Z,7.43
2023-03-17T07:03:49.435Z,7.46
2023-03-17T07:06:16.060Z,7.53
2023-03-17T07:08:42.589Z,7.58
2023-03-17T07:11:09.091Z,7.61
2023-03-17T07:13:36.946Z,7.65
2023-03-17T07:16:04.182Z,7.71
2023-03-17T07:18:31.174Z,7.73
2023-03-17T07:20:57.901Z,7.80
2023-03-17T07:23:24.603Z,7.85
2023-03-17T07:25:51.225Z,7.90
2023-03-17T07:28:17.710Z,7.94
2023-03-17T07:30:45.671Z,8.01
2023-03-17T07:33:12.385Z,8.07
2023-03-17T07:35:38.991Z,8.13
2023-03-17T07:38:05.869Z,8.21
2023-03-17T07:40:34.876Z,8.30
2023-03-17T07:43:02.132Z,8.37
2023-03-17T07:45:28.929Z,8.44
2023-03-17T07:47:56.981Z,8.52
2023-03-17T07:50:23.470Z,8.61
2023-03-17T07:52:49.995Z,8.68
2023-03-17T07:55:16.597Z,8.78
2023-03-17T07:57:43.144Z,8.88
2023-03-17T08:00:11.518Z,8.95
2023-03-17T08:02:38.359Z,9.06
2023-03-17T08:05:07.337Z,9.16
2023-03-17T08:07:33.978Z,9.25
2023-03-17T08:10:00.539Z,9.34
2023-03-17T08:12:27.093Z,9.44
2023-03-17T08:14:53.580Z,9.55
2023-03-17T08:17:20.121Z,9.64
2023-03-17T08:19:46.795Z,9.74
2023-03-17T08:22:14.659Z,9.84
2023-03-17T08:24:41.210Z,9.94
2023-03-17T08:27:07.855Z,10.07
2023-03-17T08:29:34.509Z,10.16
2023-03-17T08:32:01.354Z,10.27
2023-03-17T08:34:27.869Z,10.39
2023-03-17T08:36:54.349Z,10.54
2023-03-17T08:39:22.445Z,10.69
2023-03-17T08:41:49.055Z,10.80
2023-03-17T08:44:15.588Z,10.90
2023-03-17T08:46:42.135Z,11.01
2023-03-17T08:49:10.191Z,11.11
2023-03-17T08:51:38.568Z,11.23
2023-03-17T08:54:06.241Z,11.35
2023-03-17T08:56:34.271Z,11.49
2023-03-17T08:59:00.846Z,11.60
2023-03-17T09:01:27.573Z,11.68
2023-03-17T09:03:55.100Z,11.76
2023-03-17T09:06:22.544Z,11.84
2023-03-17T09:08:49.782Z,11.91
2023-03-17T09:11:18.442Z,11.97
2023-03-17T09:13:47.060Z,12.03
2023-03-17T09:16:14.350Z,12.11
2023-03-17T09:18:41.008Z,12.17
2023-03-17T09:21:08.256Z,12.27
2023-03-17T09:23:34.812Z,12.39
2023-03-17T09:26:01.493Z,12.49
2023-03-17T09:28:28.119Z,12.60
2023-03-17T09:30:59.175Z,12.72
2023-03-17T09:33:25.665Z,12.84
2023-03-17T09:35:52.342Z,12.96
2023-03-17T09:38:18.872Z,13.04
2023-03-17T09:40:49.121Z,13.11
2023-03-17T09:43:26.613Z,13.17
2023-03-17T09:45:54.277Z,13.22
2023-03-17T09:48:35.881Z,13.31
2023-03-17T09:51:04.994Z,13.34
2023-03-17T09:53:35.132Z,13.35
2023-03-17T09:56:07.180Z,13.34
2023-03-17T09:58:35.392Z,13.35
2023-03-17T10:01:03.052Z,13.37
2023-03-17T10:03:31.909Z,13.43
2023-03-17T10:06:28.344Z,13.49
2023-03-17T10:09:00.547Z,13.66
2023-03-17T10:11:37.424Z,13.77
2023-03-17T10:14:11.045Z,13.80
2023-03-17T10:16:42.266Z,13.80
2023-03-17T10:19:20.237Z,13.82
2023-03-17T10:21:51.369Z,13.84
2023-03-17T10:24:19.162Z,13.91
2023-03-17T10:26:48.724Z,14.00
2023-03-17T10:29:17.339Z,14.11
2023-03-17T10:31:43.895Z,14.21
2023-03-17T10:34:16.514Z,14.30
2023-03-17T10:36:46.102Z,14.33
2023-03-17T10:39:14.984Z,14.37
2023-03-17T10:41:51.744Z,14.41
2023-03-17T10:44:27.021Z,14.46
2023-03-17T10:46:55.553Z,14.48
2023-03-17T10:49:23.653Z,14.50
2023-03-17T10:51:52.343Z,14.53
2023-03-17T10:54:20.286Z,14.58
2023-03-17T10:56:49.157Z,14.63
2023-03-17T10:59:19.667Z,14.73
2023-03-17T11:01:52.001Z,14.79
2023-03-17T11:04:32.805Z,14.82
2023-03-17T11:07:00.949Z,14.81
2023-03-17T11:09:33.828Z,14.79
2023-03-17T11:12:02.766Z,14.72
2023-03-17T11:14:29.231Z,14.78
2023-03-17T11:16:57.754Z,14.96
2023-03-17T11:19:36.998Z,15.16
2023-03-17T11:22:09.219Z,15.33
2023-03-17T11:24:46.947Z,15.55
2023-03-17T11:27:21.084Z,15.70
2023-03-17T11:30:14.832Z,15.83
2023-03-17T11:32:44.901Z,15.90
2023-03-17T11:35:32.381Z,15.98
2023-03-17T11:38:24.228Z,16.01
2023-03-17T11:41:08.378Z,16.09
2023-03-17T11:43:42.531Z,16.13
2023-03-17T11:46:11.323Z,16.19
2023-03-17T11:48:49.025Z,16.29
2023-03-17T11:51:23.476Z,16.38
2023-03-17T11:54:09.715Z,16.48
2023-03-17T11:56:42.522Z,16.58
2023-03-17T11:59:17.376Z,16.64
2023-03-17T12:01:51.321Z,16.76
2023-03-17T12:04:23.961Z,16.80
2023-03-17T12:06:57.160Z,16.79
2023-03-17T12:09:30.180Z,16.82
2023-03-17T12:11:58.529Z,16.84
2023-03-17T12:14:29.334Z,16.84
2023-03-17T12:17:02.543Z,16.93
2023-03-17T12:19:37.567Z,16.99
2023-03-17T12:22:09.138Z,17.06
2023-03-17T12:24:40.151Z,17.16
2023-03-17T12:27:12.985Z,17.25
2023-03-17T12:29:42.860Z,17.30
2023-03-17T12:32:17.283Z,17.34
2023-03-17T12:34:50.314Z,17.37
2023-03-17T12:37:19.483Z,17.40
2023-03-17T12:39:52.268Z,17.40
2023-03-17T12:42:29.264Z,17.41
2023-03-17T12:45:18.505Z,17.35
2023-03-17T12:47:58.285Z,17.34
2023-03-17T12:50:40.584Z,17.31
2023-03-17T12:53:28.417Z,17.25
2023-03-17T12:55:59.132Z,17.21
2023-03-17T12:58:34.858Z,17.18
2023-03-17T13:01:11.790Z,17.20
2023-03-17T13:03:55.900Z,17.18
2023-03-17T13:06:24.309Z,17.18
2023-03-17T13:08:53.145Z,17.17
2023-03-17T13:11:27.286Z,17.16
2023-03-17T13:14:14.189Z,17.17
2023-03-17T13:16:41.885Z,17.18
2023-03-17T13:19:20.801Z,17.22
2023-03-17T13:22:17.598Z,17.27
2023-03-17T13:24:48.404Z,17.28
2023-03-17T13:27:43.580Z,17.28
2023-03-17T13:30:43.203Z,17.30
2023-03-17T13:33:19.358Z,17.28
2023-03-17T13:35:58.194Z,17.30
2023-03-17T13:39:04.879Z,17.35
2023-03-17T13:41:57.676Z,17.36
2023-03-17T13:44:38.838Z,17.37
2023-03-17T13:47:28.009Z,17.40
2023-03-17T13:49:58.065Z,17.40
2023-03-17T13:52:27.560Z,17.40
2023-03-17T13:55:01.923Z,17.40
2023-03-17T13:57:29.751Z,17.39
2023-03-17T14:00:01.567Z,17.41
2023-03-17T14:02:31.270Z,17.44
2023-03-17T14:05:00.364Z,17.44
2023-03-17T14:07:31.109Z,17.47
2023-03-17T14:09:59.971Z,17.45
2023-03-17T14:12:33.367Z,17.43
2023-03-17T14:15:03.732Z,17.45
2023-03-17T14:17:34.784Z,17.47
2023-03-17T14:20:06.974Z,17.51
2023-03-17T14:22:39.631Z,17.54
2023-03-17T14:25:13.981Z,17.52
2023-03-17T14:27:40.611Z,17.52
2023-03-17T14:30:17.842Z,17.51
2023-03-17T14:32:47.723Z,17.47
2023-03-17T14:35:14.716Z,17.42
2023-03-17T14:37:41.291Z,17.39
2023-03-17T14:40:21.008Z,17.36
2023-03-17T14:42:47.583Z,17.33
2023-03-17T14:45:22.488Z,17.31
2023-03-17T14:47:50.208Z,17.30
2023-03-17T14:50:22.804Z,17.32
2023-03-17T14:52:50.194Z,17.34
2023-03-17T14:55:17.203Z,17.37
2023-03-17T14:57:49.503Z,17.40
2023-03-17T15:00:30.942Z,17.44
2023-03-17T15:02:59.365Z,17.46
2023-03-17T15:05:30.199Z,17.49
2023-03-17T15:07:57.177Z,17.53
2023-03-17T15:10:26.465Z,17.57
2023-03-17T15:13:01.426Z,17.63
2023-03-17T15:15:32.512Z,17.64
2023-03-17T15:18:02.908Z,17.67
2023-03-17T15:20:29.991Z,17.68
2023-03-17T15:22:59.091Z,17.65
2023-03-17T15:25:32.876Z,17.63
2023-03-17T15:28:00.209Z,17.61
2023-03-17T15:30:29.441Z,17.60
2023-03-17T15:33:01.695Z,17.61
2023-03-17T15:35:28.542Z,17.60
2023-03-17T15:37:55.532Z,17.58
2023-03-17T15:40:22.091Z,17.54
2023-03-17T15:42:48.628Z,17.47
2023-03-17T15:45:16.026Z,17.41
2023-03-17T15:47:43.782Z,17.36
2023-03-17T15:50:16.674Z,17.28
2023-03-17T15:52:44.202Z,17.22
2023-03-17T15:55:16.354Z,17.14
2023-03-17T15:57:48.251Z,17.07
2023-03-17T16:00:21.442Z,16.99
2023-03-17T16:02:50.453Z,16.92
2023-03-17T16:05:20.912Z,16.87
2023-03-17T16:07:47.545Z,16.83
2023-03-17T16:10:19.808Z,16.79
2023-03-17T16:12:46.725Z,16.73
2023-03-17T16:15:23.147Z,16.69
2023-03-17T16:17:52.459Z,16.65
2023-03-17T16:20:24.784Z,16.59
2023-03-17T16:22:53.115Z,16.54
2023-03-17T16:25:23.528Z,16.48
2023-03-17T16:27:50.355Z,16.46
2023-03-17T16:30:18.584Z,16.40
2023-03-17T16:32:45.329Z,16.36
2023-03-17T16:35:17.136Z,16.31
2023-03-17T16:37:45.742Z,16.25
2023-03-17T16:40:17.819Z,16.17
2023-03-17T16:42:44.571Z,16.12
2023-03-17T16:45:16.850Z,16.08
2023-03-17T16:47:43.334Z,16.08
2023-03-17T16:50:15.218Z,16.01
2023-03-17T16:52:41.865Z,16.00
2023-03-17T16:55:10.344Z,16.02
2023-03-17T16:57:37.870Z,15.97
2023-03-17T17:00:06.234Z,15.97
2023-03-17T17:02:32.974Z,15.92
2023-03-17T17:04:59.482Z,15.88
2023-03-17T17:07:26.041Z,15.80
2023-03-17T17:09:52.515Z,15.81
2023-03-17T17:12:20.308Z,15.74
2023-03-17T17:14:46.779Z,15.68
2023-03-17T17:17:13.790Z,15.66
2023-03-17T17:19:40.286Z,15.61
2023-03-17T17:22:06.791Z,15.57
2023-03-17T17:24:33.291Z,15.59
2023-03-17T17:26:59.769Z,15.50
2023-03-17T17:29:27.709Z,15.46
2023-03-17T17:31:54.443Z,15.41
2023-03-17T17:34:20.998Z,15.36
2023-03-17T17:36:47.569Z,15.32
2023-03-17T17:39:14.045Z,15.31
2023-03-17T17:41:40.544Z,15.28
2023-03-17T17:44:07.064Z,15.24
2023-03-17T17:46:34.905Z,15.18
2023-03-17T17:49:01.454Z,15.14
2023-03-17T17:51:27.982Z,15.08
2023-03-17T17:53:54.525Z,15.03
2023-03-17T17:56:21.046Z,14.97
2023-03-17T17:58:47.692Z,14.91
2023-03-17T18:01:14.463Z,14.83
2023-03-17T18:03:42.348Z,14.77
2023-03-17T18:06:09.099Z,14.70
2023-03-17T18:08:36.951Z,14.63
2023-03-17T18:11:03.441Z,14.56
2023-03-17T18:13:29.961Z,14.51
2023-03-17T18:15:56.432Z,14.48
2023-03-17T18:18:22.985Z,14.43
2023-03-17T18:20:51.098Z,14.37
2023-03-17T18:23:17.614Z,14.30
2023-03-17T18:25:44.095Z,14.23
2023-03-17T18:28:10.627Z,14.15
2023-03-17T18:30:37.602Z,14.07
2023-03-17T18:33:07.327Z,13.99
2023-03-17T18:35:34.280Z,13.93
2023-03-17T18:38:02.396Z,13.87
2023-03-17T18:40:29.418Z,13.80
2023-03-17T18:42:55.933Z,13.75
2023-03-17T18:45:22.617Z,13.71
2023-03-17T18:47:49.154Z,13.65
2023-03-17T18:50:16.828Z,13.61
2023-03-17T18:52:44.161Z,13.58
2023-03-17T18:55:13.901Z,13.57
2023-03-17T18:57:43.094Z,13.53
2023-03-17T19:00:12.474Z,13.50
2023-03-17T19:02:39.186Z,13.48
2023-03-17T19:05:06.521Z,13.46
2023-03-17T19:07:33.455Z,13.44
2023-03-17T19:10:00.304Z,13.40
2023-03-17T19:12:28.289Z,13.37
2023-03-17T19:14:54.769Z,13.32
2023-03-17T19:17:21.256Z,13.29
2023-03-17T19:19:47.820Z,13.24
2023-03-17T19:22:14.394Z,13.21
2023-03-17T19:24:40.938Z,13.21
2023-03-17T19:27:07.496Z,13.19
2023-03-17T19:29:35.330Z,13.17
2023-03-17T19:32:01.863Z,13.17
2023-03-17T19:34:28.373Z,13.15
2023-03-17T19:36:55.023Z,13.16
2023-03-17T19:39:22.104Z,13.15
2023-03-17T19:41:48.691Z,13.17
2023-03-17T19:44:15.204Z,13.18
2023-03-17T19:46:43.042Z,13.19
2023-03-17T19:49:09.799Z,13.18
2023-03-17T19:51:36.354Z,13.18
2023-03-17T19:54:03.175Z,13.19
2023-03-17T19:56:29.713Z,13.19
2023-03-17T19:58:56.199Z,13.18
2023-03-17T20:01:22.777Z,13.17
2023-03-17T20:03:50.759Z,13.15
2023-03-17T20:06:17.265Z,13.12
2023-03-17T20:08:44.326Z,13.10
2023-03-17T20:11:12.356Z,13.08
2023-03-17T20:13:39.857Z,13.07
2023-03-17T20:16:08.666Z,13.07
2023-03-17T20:18:35.432Z,13.07
2023-03-17T20:21:04.556Z,13.06
2023-03-17T20:23:31.390Z,13.06
2023-03-17T20:25:58.075Z,13.07
2023-03-17T20:28:24.781Z,13.07
2023-03-17T20:30:51.302Z,13.09
2023-03-17T20:33:18.132Z,13.09
2023-03-17T20:35:45.993Z,13.10
2023-03-17T20:38:14.117Z,13.12
2023-03-17T20:40:40.603Z,13.13
2023-03-17T20:43:07.223Z,13.16
2023-03-17T20:45:33.870Z,13.16
2023-03-17T20:48:00.371Z,13.19
2023-03-17T20:50:26.889Z,13.23
2023-03-17T20:52:53.379Z,13.28
2023-03-17T20:55:21.293Z,13.28
2023-03-17T20:57:47.755Z,13.28
2023-03-17T21:00:16.421Z,13.29
2023-03-17T21:02:42.965Z,13.30
2023-03-17T21:05:13.259Z,13.31
2023-03-17T21:07:39.710Z,13.31
2023-03-17T21:10:06.629Z,13.28
2023-03-17T21:12:34.459Z,13.34
2023-03-17T21:15:00.934Z,13.36
2023-03-17T21:17:27.706Z,13.37
2023-03-17T21:19:54.182Z,13.37
2023-03-17T21:22:20.734Z,13.36
2023-03-17T21:24:47.215Z,13.36
2023-03-17T21:27:13.717Z,13.37
2023-03-17T21:29:41.594Z,13.36
2023-03-17T21:32:08.193Z,13.35
2023-03-17T21:34:35.730Z,13.35
2023-03-17T21:37:02.247Z,13.37
2023-03-17T21:39:29.822Z,13.36
2023-03-17T21:41:57.196Z,13.37
2023-03-17T21:44:24.270Z,13.38
2023-03-17T21:46:52.206Z,13.41
2023-03-17T21:49:18.730Z,13.43
2023-03-17T21:51:46.552Z,13.45
2023-03-17T21:54:13.812Z,13.52
2023-03-17T21:56:40.447Z,13.51
2023-03-17T21:59:07.548Z,13.52
2023-03-17T22:01:34.169Z,13.53
2023-03-17T22:04:02.020Z,13.54
2023-03-17T22:06:28.575Z,13.54
2023-03-17T22:08:55.274Z,13.55
2023-03-17T22:11:21.952Z,13.54
2023-03-17T22:13:48.617Z,13.53
2023-03-17T22:16:16.444Z,13.52
2023-03-17T22:18:43.512Z,13.51
2023-03-17T22:21:11.374Z,13.52
2023-03-17T22:23:38.583Z,13.50
2023-03-17T22:26:05.498Z,13.47
2023-03-17T22:28:31.986Z,13.46
2023-03-17T22:30:58.461Z,13.46
2023-03-17T22:33:24.966Z,13.43
2023-03-17T22:35:51.473Z,13.41
2023-03-17T22:38:19.582Z,13.44
2023-03-17T22:40:46.055Z,13.42
2023-03-17T22:43:12.566Z,13.41
2023-03-17T22:45:39.166Z,13.38
2023-03-17T22:48:06.146Z,13.37
2023-03-17T22:50:32.922Z,13.35
2023-03-17T22:52:59.624Z,13.33
2023-03-17T22:55:27.502Z,13.33
2023-03-17T22:57:54.054Z,13.29
2023-03-17T23:00:21.141Z,13.24
2023-03-17T23:02:51.402Z,13.21
2023-03-17T23:05:17.971Z,13.17
2023-03-17T23:07:51.910Z,13.15
2023-03-17T23:10:20.541Z,13.10
2023-03-17T23:12:48.713Z,13.03
2023-03-17T23:15:15.339Z,12.97
2023-03-17T23:17:42.083Z,12.88
2023-03-17T23:20:09.995Z,12.80
2023-03-17T23:22:36.465Z,12.73
2023-03-17T23:25:03.215Z,12.69
2023-03-17T23:27:29.925Z,12.65
2023-03-17T23:29:57.742Z,12.62
2023-03-17T23:32:24.205Z,12.58
2023-03-17T23:34:50.745Z,12.56
2023-03-17T23:37:17.205Z,12.54
2023-03-17T23:39:43.697Z,12.54
2023-03-17T23:42:10.163Z,12.52
2023-03-17T23:44:36.645Z,12.49
2023-03-17T23:47:04.754Z,12.47
2023-03-17T23:49:31.233Z,12.43
2023-03-17T23:51:57.663Z,12.44
2023-03-17T23:54:24.247Z,12.43
2023-03-17T23:56:50.724Z,12.43
2023-03-17T23:59:17.205Z,12.42
